sensor_id;sensor_type;location;lat;lon;timestamp;P1;durP1;ratioP1;P2;durP2;ratioP2
21091;SDS011;10704;42.678;23.288;2023-03-03T00:01:35;5.55;;;3.45;;
21091;SDS011;10704;42.678;23.288;2023-03-03T00:04:01;6.63;;;4.13;;
21091;SDS011;10704;42.678;23.288;2023-03-03T00:06:27;6.95;;;4.00;;
21091;SDS011;10704;42.678;23.288;2023-03-03T00:08:54;5.93;;;3.45;;
21091;SDS011;10704;42.678;23.288;2023-03-03T00:11:21;6.60;;;3.95;;
21091;SDS011;10704;42.678;23.288;2023-03-03T00:13:55;7.32;;;4.70;;
21091;SDS011;10704;42.678;23.288;2023-03-03T00:16:23;7.90;;;4.05;;
21091;SDS011;10704;42.678;23.288;2023-03-03T00:18:55;5.97;;;3.55;;
21091;SDS011;10704;42.678;23.288;2023-03-03T00:21:41;5.78;;;3.50;;
21091;SDS011;10704;42.678;23.288;2023-03-03T00:26:46;7.03;;;4.20;;
21091;SDS011;10704;42.678;23.288;2023-03-03T00:29:26;6.60;;;3.90;;
21091;SDS011;10704;42.678;23.288;2023-03-03T00:31:58;6.45;;;3.88;;
21091;SDS011;10704;42.678;23.288;2023-03-03T00:34:42;7.93;;;4.35;;
21091;SDS011;10704;42.678;23.288;2023-03-03T00:37:25;7.80;;;4.47;;
21091;SDS011;10704;42.678;23.288;2023-03-03T00:39:56;6.80;;;4.22;;
21091;SDS011;10704;42.678;23.288;2023-03-03T00:42:37;11.23;;;5.10;;
21091;SDS011;10704;42.678;23.288;2023-03-03T00:45:07;8.60;;;4.55;;
21091;SDS011;10704;42.678;23.288;2023-03-03T00:47:53;8.23;;;5.07;;
21091;SDS011;10704;42.678;23.288;2023-03-03T00:53:12;10.07;;;5.30;;
21091;SDS011;10704;42.678;23.288;2023-03-03T00:55:38;10.30;;;6.00;;
21091;SDS011;10704;42.678;23.288;2023-03-03T00:58:05;8.88;;;5.10;;
21091;SDS011;10704;42.678;23.288;2023-03-03T01:00:36;8.60;;;5.22;;
21091;SDS011;10704;42.678;23.288;2023-03-03T01:03:05;8.05;;;5.07;;
21091;SDS011;10704;42.678;23.288;2023-03-03T01:05:38;12.25;;;5.90;;
21091;SDS011;10704;42.678;23.288;2023-03-03T01:08:04;10.05;;;5.13;;
21091;SDS011;10704;42.678;23.288;2023-03-03T01:10:31;8.25;;;4.97;;
21091;SDS011;10704;42.678;23.288;2023-03-03T01:13:03;11.15;;;6.05;;
21091;SDS011;10704;42.678;23.288;2023-03-03T01:15:30;9.23;;;5.47;;
21091;SDS011;10704;42.678;23.288;2023-03-03T01:17:56;9.10;;;5.60;;
21091;SDS011;10704;42.678;23.288;2023-03-03T01:20:22;8.57;;;5.45;;
21091;SDS011;10704;42.678;23.288;2023-03-03T01:22:48;10.05;;;5.55;;
21091;SDS011;10704;42.678;23.288;2023-03-03T01:25:14;9.10;;;5.68;;
21091;SDS011;10704;42.678;23.288;2023-03-03T01:27:40;9.07;;;5.65;;
21091;SDS011;10704;42.678;23.288;2023-03-03T01:30:06;9.18;;;5.15;;
21091;SDS011;10704;42.678;23.288;2023-03-03T01:32:32;11.10;;;5.68;;
21091;SDS011;10704;42.678;23.288;2023-03-03T01:34:59;11.32;;;5.63;;
21091;SDS011;10704;42.678;23.288;2023-03-03T01:37:25;10.25;;;5.78;;
21091;SDS011;10704;42.678;23.288;2023-03-03T01:39:51;9.50;;;5.93;;
21091;SDS011;10704;42.678;23.288;2023-03-03T01:42:17;9.93;;;4.93;;
21091;SDS011;10704;42.678;23.288;2023-03-03T01:44:44;10.02;;;5.70;;
21091;SDS011;10704;42.678;23.288;2023-03-03T01:47:20;8.45;;;5.10;;
21091;SDS011;10704;42.678;23.288;2023-03-03T01:49:55;8.80;;;5.60;;
21091;SDS011;10704;42.678;23.288;2023-03-03T01:52:37;10.30;;;5.55;;
21091;SDS011;10704;42.678;23.288;2023-03-03T01:55:07;9.98;;;6.13;;
21091;SDS011;10704;42.678;23.288;2023-03-03T01:57:41;10.95;;;5.05;;
21091;SDS011;10704;42.678;23.288;2023-03-03T02:00:11;9.98;;;5.32;;
21091;SDS011;10704;42.678;23.288;2023-03-03T02:02:40;10.30;;;5.72;;
21091;SDS011;10704;42.678;23.288;2023-03-03T02:05:07;9.23;;;5.63;;
21091;SDS011;10704;42.678;23.288;2023-03-03T02:07:34;12.20;;;6.07;;
21091;SDS011;10704;42.678;23.288;2023-03-03T02:10:19;11.18;;;6.18;;
21091;SDS011;10704;42.678;23.288;2023-03-03T02:12:53;11.50;;;5.55;;
21091;SDS011;10704;42.678;23.288;2023-03-03T02:15:22;9.82;;;5.50;;
21091;SDS011;10704;42.678;23.288;2023-03-03T02:17:54;9.70;;;5.65;;
21091;SDS011;10704;42.678;23.288;2023-03-03T02:28:24;9.52;;;5.05;;
21091;SDS011;10704;42.678;23.288;2023-03-03T02:30:56;8.82;;;5.53;;
21091;SDS011;10704;42.678;23.288;2023-03-03T02:33:24;9.63;;;4.68;;
21091;SDS011;10704;42.678;23.288;2023-03-03T02:35:50;7.60;;;4.65;;
21091;SDS011;10704;42.678;23.288;2023-03-03T02:38:36;8.45;;;5.10;;
21091;SDS011;10704;42.678;23.288;2023-03-03T02:41:28;9.07;;;4.80;;
21091;SDS011;10704;42.678;23.288;2023-03-03T02:43:58;8.45;;;5.57;;
21091;SDS011;10704;42.678;23.288;2023-03-03T02:46:35;9.05;;;5.10;;
21091;SDS011;10704;42.678;23.288;2023-03-03T02:49:04;9.05;;;4.90;;
21091;SDS011;10704;42.678;23.288;2023-03-03T02:51:31;9.10;;;5.25;;
21091;SDS011;10704;42.678;23.288;2023-03-03T02:53:57;8.80;;;5.10;;
21091;SDS011;10704;42.678;23.288;2023-03-03T02:56:25;10.05;;;5.40;;
21091;SDS011;10704;42.678;23.288;2023-03-03T02:58:52;9.02;;;6.00;;
21091;SDS011;10704;42.678;23.288;2023-03-03T03:01:18;9.18;;;5.07;;
21091;SDS011;10704;42.678;23.288;2023-03-03T03:03:45;11.00;;;5.35;;
21091;SDS011;10704;42.678;23.288;2023-03-03T03:06:17;7.53;;;4.60;;
21091;SDS011;10704;42.678;23.288;2023-03-03T03:08:44;8.15;;;5.38;;
21091;SDS011;10704;42.678;23.288;2023-03-03T03:11:10;10.13;;;5.45;;
21091;SDS011;10704;42.678;23.288;2023-03-03T03:13:37;9.30;;;4.90;;
21091;SDS011;10704;42.678;23.288;2023-03-03T03:16:04;8.10;;;5.47;;
21091;SDS011;10704;42.678;23.288;2023-03-03T03:18:30;9.20;;;5.88;;
21091;SDS011;10704;42.678;23.288;2023-03-03T03:20:57;9.57;;;5.63;;
21091;SDS011;10704;42.678;23.288;2023-03-03T03:23:30;10.57;;;5.70;;
21091;SDS011;10704;42.678;23.288;2023-03-03T03:25:57;9.30;;;5.97;;
21091;SDS011;10704;42.678;23.288;2023-03-03T03:28:26;11.40;;;6.68;;
21091;SDS011;10704;42.678;23.288;2023-03-03T03:30:53;10.05;;;6.38;;
21091;SDS011;10704;42.678;23.288;2023-03-03T03:33:20;11.73;;;6.72;;
21091;SDS011;10704;42.678;23.288;2023-03-03T03:35:47;12.40;;;7.18;;
21091;SDS011;10704;42.678;23.288;2023-03-03T03:38:14;11.48;;;6.53;;
21091;SDS011;10704;42.678;23.288;2023-03-03T03:40:42;9.98;;;6.43;;
21091;SDS011;10704;42.678;23.288;2023-03-03T03:43:08;12.95;;;7.25;;
21091;SDS011;10704;42.678;23.288;2023-03-03T03:45:34;10.95;;;6.28;;
21091;SDS011;10704;42.678;23.288;2023-03-03T03:48:01;11.60;;;6.93;;
21091;SDS011;10704;42.678;23.288;2023-03-03T03:50:28;15.10;;;7.57;;
21091;SDS011;10704;42.678;23.288;2023-03-03T03:52:54;12.40;;;7.38;;
21091;SDS011;10704;42.678;23.288;2023-03-03T03:55:20;11.63;;;6.80;;
21091;SDS011;10704;42.678;23.288;2023-03-03T03:57:47;12.93;;;7.18;;
21091;SDS011;10704;42.678;23.288;2023-03-03T04:00:13;13.95;;;7.22;;
21091;SDS011;10704;42.678;23.288;2023-03-03T04:02:43;12.95;;;7.43;;
21091;SDS011;10704;42.678;23.288;2023-03-03T04:05:12;12.23;;;7.30;;
21091;SDS011;10704;42.678;23.288;2023-03-03T04:07:38;11.68;;;7.47;;
21091;SDS011;10704;42.678;23.288;2023-03-03T04:10:06;13.88;;;8.02;;
21091;SDS011;10704;42.678;23.288;2023-03-03T04:12:32;12.02;;;6.95;;
21091;SDS011;10704;42.678;23.288;2023-03-03T04:15:09;13.20;;;7.88;;
21091;SDS011;10704;42.678;23.288;2023-03-03T04:17:37;13.43;;;7.70;;
21091;SDS011;10704;42.678;23.288;2023-03-03T04:20:05;12.73;;;7.78;;
21091;SDS011;10704;42.678;23.288;2023-03-03T04:22:31;12.05;;;7.32;;
21091;SDS011;10704;42.678;23.288;2023-03-03T04:24:59;14.20;;;8.20;;
21091;SDS011;10704;42.678;23.288;2023-03-03T04:27:35;14.18;;;8.40;;
21091;SDS011;10704;42.678;23.288;2023-03-03T04:30:02;14.70;;;8.18;;
21091;SDS011;10704;42.678;23.288;2023-03-03T04:32:31;15.07;;;8.93;;
21091;SDS011;10704;42.678;23.288;2023-03-03T04:34:59;16.48;;;8.60;;
21091;SDS011;10704;42.678;23.288;2023-03-03T04:37:25;15.60;;;9.45;;
21091;SDS011;10704;42.678;23.288;2023-03-03T04:39:51;17.58;;;9.82;;
21091;SDS011;10704;42.678;23.288;2023-03-03T04:42:17;18.40;;;9.45;;
21091;SDS011;10704;42.678;23.288;2023-03-03T04:44:44;17.17;;;9.50;;
21091;SDS011;10704;42.678;23.288;2023-03-03T04:47:10;17.80;;;9.57;;
21091;SDS011;10704;42.678;23.288;2023-03-03T04:49:36;18.77;;;10.25;;
21091;SDS011;10704;42.678;23.288;2023-03-03T04:52:03;17.17;;;9.65;;
21091;SDS011;10704;42.678;23.288;2023-03-03T04:54:30;19.13;;;10.55;;
21091;SDS011;10704;42.678;23.288;2023-03-03T04:56:56;17.17;;;9.93;;
21091;SDS011;10704;42.678;23.288;2023-03-03T04:59:23;18.52;;;9.90;;
21091;SDS011;10704;42.678;23.288;2023-03-03T05:01:49;16.85;;;10.57;;
21091;SDS011;10704;42.678;23.288;2023-03-03T05:04:15;17.60;;;10.10;;
21091;SDS011;10704;42.678;23.288;2023-03-03T05:06:41;16.85;;;10.57;;
21091;SDS011;10704;42.678;23.288;2023-03-03T05:09:07;18.65;;;10.10;;
21091;SDS011;10704;42.678;23.288;2023-03-03T05:11:34;19.88;;;10.57;;
21091;SDS011;10704;42.678;23.288;2023-03-03T05:14:00;18.55;;;10.32;;
21091;SDS011;10704;42.678;23.288;2023-03-03T05:16:27;19.92;;;11.05;;
21091;SDS011;10704;42.678;23.288;2023-03-03T05:18:53;20.17;;;10.85;;
21091;SDS011;10704;42.678;23.288;2023-03-03T05:21:19;19.23;;;10.65;;
21091;SDS011;10704;42.678;23.288;2023-03-03T05:23:45;20.15;;;11.20;;
21091;SDS011;10704;42.678;23.288;2023-03-03T05:26:11;20.27;;;10.45;;
21091;SDS011;10704;42.678;23.288;2023-03-03T05:28:37;21.60;;;11.27;;
21091;SDS011;10704;42.678;23.288;2023-03-03T05:31:03;19.08;;;10.73;;
21091;SDS011;10704;42.678;23.288;2023-03-03T05:33:29;17.98;;;10.15;;
21091;SDS011;10704;42.678;23.288;2023-03-03T05:35:55;18.90;;;10.75;;
21091;SDS011;10704;42.678;23.288;2023-03-03T05:38:22;18.88;;;10.45;;
21091;SDS011;10704;42.678;23.288;2023-03-03T05:40:49;21.40;;;10.95;;
21091;SDS011;10704;42.678;23.288;2023-03-03T05:43:15;21.48;;;12.68;;
21091;SDS011;10704;42.678;23.288;2023-03-03T05:45:41;18.13;;;11.45;;
21091;SDS011;10704;42.678;23.288;2023-03-03T05:48:07;20.05;;;11.18;;
21091;SDS011;10704;42.678;23.288;2023-03-03T05:50:35;21.83;;;12.63;;
21091;SDS011;10704;42.678;23.288;2023-03-03T05:53:02;20.95;;;11.95;;
21091;SDS011;10704;42.678;23.288;2023-03-03T05:55:28;19.92;;;12.18;;
21091;SDS011;10704;42.678;23.288;2023-03-03T05:57:54;18.15;;;10.52;;
21091;SDS011;10704;42.678;23.288;2023-03-03T06:00:20;18.77;;;11.65;;
21091;SDS011;10704;42.678;23.288;2023-03-03T06:02:46;17.60;;;9.75;;
21091;SDS011;10704;42.678;23.288;2023-03-03T06:05:12;17.60;;;8.95;;
21091;SDS011;10704;42.678;23.288;2023-03-03T06:07:38;16.55;;;9.32;;
21091;SDS011;10704;42.678;23.288;2023-03-03T06:10:05;17.75;;;10.48;;
21091;SDS011;10704;42.678;23.288;2023-03-03T06:12:35;19.17;;;11.23;;
21091;SDS011;10704;42.678;23.288;2023-03-03T06:15:01;19.98;;;12.25;;
21091;SDS011;10704;42.678;23.288;2023-03-03T06:17:27;21.02;;;12.60;;
21091;SDS011;10704;42.678;23.288;2023-03-03T06:19:53;22.67;;;12.93;;
21091;SDS011;10704;42.678;23.288;2023-03-03T06:22:19;22.13;;;12.05;;
21091;SDS011;10704;42.678;23.288;2023-03-03T06:24:45;23.30;;;12.70;;
21091;SDS011;10704;42.678;23.288;2023-03-03T06:27:10;23.38;;;12.85;;
21091;SDS011;10704;42.678;23.288;2023-03-03T06:29:36;23.17;;;12.15;;
21091;SDS011;10704;42.678;23.288;2023-03-03T06:32:02;20.13;;;11.38;;
21091;SDS011;10704;42.678;23.288;2023-03-03T06:34:29;18.98;;;10.93;;
21091;SDS011;10704;42.678;23.288;2023-03-03T06:36:54;21.20;;;11.57;;
21091;SDS011;10704;42.678;23.288;2023-03-03T06:39:21;19.45;;;12.07;;
21091;SDS011;10704;42.678;23.288;2023-03-03T06:41:48;19.40;;;11.57;;
21091;SDS011;10704;42.678;23.288;2023-03-03T06:44:14;24.45;;;11.30;;
21091;SDS011;10704;42.678;23.288;2023-03-03T06:46:41;20.98;;;12.38;;
21091;SDS011;10704;42.678;23.288;2023-03-03T06:49:07;19.10;;;11.57;;
21091;SDS011;10704;42.678;23.288;2023-03-03T06:51:34;22.23;;;12.20;;
21091;SDS011;10704;42.678;23.288;2023-03-03T06:54:11;20.35;;;11.25;;
21091;SDS011;10704;42.678;23.288;2023-03-03T06:56:38;21.40;;;11.63;;
21091;SDS011;10704;42.678;23.288;2023-03-03T06:59:08;19.33;;;11.48;;
21091;SDS011;10704;42.678;23.288;2023-03-03T07:01:40;25.77;;;12.57;;
21091;SDS011;10704;42.678;23.288;2023-03-03T07:07:15;19.02;;;11.63;;
21091;SDS011;10704;42.678;23.288;2023-03-03T07:09:42;20.55;;;11.98;;
21091;SDS011;10704;42.678;23.288;2023-03-03T07:12:10;17.30;;;11.05;;
21091;SDS011;10704;42.678;23.288;2023-03-03T07:14:45;21.55;;;12.32;;
21091;SDS011;10704;42.678;23.288;2023-03-03T07:17:20;20.23;;;11.77;;
21091;SDS011;10704;42.678;23.288;2023-03-03T07:19:48;19.58;;;11.52;;
21091;SDS011;10704;42.678;23.288;2023-03-03T07:22:16;18.35;;;10.80;;
21091;SDS011;10704;42.678;23.288;2023-03-03T07:24:50;21.67;;;11.05;;
21091;SDS011;10704;42.678;23.288;2023-03-03T07:29:47;16.92;;;10.75;;
21091;SDS011;10704;42.678;23.288;2023-03-03T07:35:21;15.93;;;9.93;;
21091;SDS011;10704;42.678;23.288;2023-03-03T07:38:22;15.73;;;9.77;;
21091;SDS011;10704;42.678;23.288;2023-03-03T07:41:18;13.25;;;8.32;;
21091;SDS011;10704;42.678;23.288;2023-03-03T07:43:54;15.65;;;9.13;;
21091;SDS011;10704;42.678;23.288;2023-03-03T07:46:39;16.05;;;9.07;;
21091;SDS011;10704;42.678;23.288;2023-03-03T07:49:55;15.90;;;9.27;;
21091;SDS011;10704;42.678;23.288;2023-03-03T07:51:56;16.52;;;10.75;;
21091;SDS011;10704;42.678;23.288;2023-03-03T07:54:39;20.10;;;10.98;;
21091;SDS011;10704;42.678;23.288;2023-03-03T07:59:50;14.88;;;9.85;;
21091;SDS011;10704;42.678;23.288;2023-03-03T08:05:57;17.55;;;10.50;;
21091;SDS011;10704;42.678;23.288;2023-03-03T08:10:56;18.88;;;12.20;;
21091;SDS011;10704;42.678;23.288;2023-03-03T08:13:27;19.20;;;10.82;;
21091;SDS011;10704;42.678;23.288;2023-03-03T08:16:00;19.02;;;10.63;;
21091;SDS011;10704;42.678;23.288;2023-03-03T08:18:46;18.80;;;10.73;;
21091;SDS011;10704;42.678;23.288;2023-03-03T08:21:14;20.15;;;11.70;;
21091;SDS011;10704;42.678;23.288;2023-03-03T08:23:45;16.58;;;10.50;;
21091;SDS011;10704;42.678;23.288;2023-03-03T08:26:13;19.02;;;10.57;;
21091;SDS011;10704;42.678;23.288;2023-03-03T08:28:41;18.48;;;10.68;;
21091;SDS011;10704;42.678;23.288;2023-03-03T08:31:07;17.52;;;10.70;;
21091;SDS011;10704;42.678;23.288;2023-03-03T08:33:33;15.63;;;9.93;;
21091;SDS011;10704;42.678;23.288;2023-03-03T08:36:42;17.98;;;11.02;;
21091;SDS011;10704;42.678;23.288;2023-03-03T08:39:15;18.25;;;10.52;;
21091;SDS011;10704;42.678;23.288;2023-03-03T08:41:44;18.45;;;11.20;;
21091;SDS011;10704;42.678;23.288;2023-03-03T08:44:11;19.65;;;11.38;;
21091;SDS011;10704;42.678;23.288;2023-03-03T08:46:37;18.50;;;12.10;;
21091;SDS011;10704;42.678;23.288;2023-03-03T08:49:03;18.25;;;11.93;;
21091;SDS011;10704;42.678;23.288;2023-03-03T08:51:29;16.67;;;11.10;;
21091;SDS011;10704;42.678;23.288;2023-03-03T08:53:55;20.38;;;11.75;;
21091;SDS011;10704;42.678;23.288;2023-03-03T08:56:21;19.17;;;11.38;;
21091;SDS011;10704;42.678;23.288;2023-03-03T08:58:51;17.73;;;11.93;;
21091;SDS011;10704;42.678;23.288;2023-03-03T09:01:20;18.90;;;11.85;;
21091;SDS011;10704;42.678;23.288;2023-03-03T09:03:47;19.02;;;11.77;;
21091;SDS011;10704;42.678;23.288;2023-03-03T09:06:13;20.85;;;12.15;;
21091;SDS011;10704;42.678;23.288;2023-03-03T09:08:43;19.38;;;12.25;;
21091;SDS011;10704;42.678;23.288;2023-03-03T09:11:23;21.15;;;13.63;;
21091;SDS011;10704;42.678;23.288;2023-03-03T09:14:13;27.33;;;13.43;;
21091;SDS011;10704;42.678;23.288;2023-03-03T09:16:55;22.13;;;12.70;;
21091;SDS011;10704;42.678;23.288;2023-03-03T09:19:35;20.58;;;12.57;;
21091;SDS011;10704;42.678;23.288;2023-03-03T09:22:19;20.10;;;12.23;;
21091;SDS011;10704;42.678;23.288;2023-03-03T09:24:49;20.77;;;12.80;;
21091;SDS011;10704;42.678;23.288;2023-03-03T09:27:26;19.92;;;11.68;;
21091;SDS011;10704;42.678;23.288;2023-03-03T09:30:26;22.23;;;12.13;;
21091;SDS011;10704;42.678;23.288;2023-03-03T09:32:49;20.00;;;12.55;;
21091;SDS011;10704;42.678;23.288;2023-03-03T09:35:44;19.85;;;12.48;;
21091;SDS011;10704;42.678;23.288;2023-03-03T09:38:29;23.08;;;13.43;;
21091;SDS011;10704;42.678;23.288;2023-03-03T09:43:47;22.95;;;12.65;;
21091;SDS011;10704;42.678;23.288;2023-03-03T09:46:58;20.80;;;12.18;;
21091;SDS011;10704;42.678;23.288;2023-03-03T09:55:33;18.20;;;12.27;;
21091;SDS011;10704;42.678;23.288;2023-03-03T10:00:54;17.17;;;10.32;;
21091;SDS011;10704;42.678;23.288;2023-03-03T10:06:37;15.85;;;10.38;;
21091;SDS011;10704;42.678;23.288;2023-03-03T10:12:25;16.83;;;10.80;;
21091;SDS011;10704;42.678;23.288;2023-03-03T10:17:50;23.63;;;14.05;;
21091;SDS011;10704;42.678;23.288;2023-03-03T10:40:02;21.15;;;12.30;;
21091;SDS011;10704;42.678;23.288;2023-03-03T10:57:14;18.85;;;12.15;;
21091;SDS011;10704;42.678;23.288;2023-03-03T10:59:51;18.10;;;11.63;;
21091;SDS011;10704;42.678;23.288;2023-03-03T11:13:18;25.02;;;16.10;;
21091;SDS011;10704;42.678;23.288;2023-03-03T11:16:00;27.90;;;17.83;;
21091;SDS011;10704;42.678;23.288;2023-03-03T11:18:59;29.58;;;19.88;;
21091;SDS011;10704;42.678;23.288;2023-03-03T11:22:18;37.58;;;22.63;;
21091;SDS011;10704;42.678;23.288;2023-03-03T11:27:11;36.75;;;24.67;;
21091;SDS011;10704;42.678;23.288;2023-03-03T11:43:45;35.20;;;22.50;;
21091;SDS011;10704;42.678;23.288;2023-03-03T11:46:17;34.95;;;22.30;;
21091;SDS011;10704;42.678;23.288;2023-03-03T11:48:47;38.95;;;24.58;;
21091;SDS011;10704;42.678;23.288;2023-03-03T11:54:09;36.25;;;23.08;;
21091;SDS011;10704;42.678;23.288;2023-03-03T11:56:58;28.70;;;18.63;;
21091;SDS011;10704;42.678;23.288;2023-03-03T12:02:22;31.17;;;20.00;;
21091;SDS011;10704;42.678;23.288;2023-03-03T12:11:01;33.28;;;20.63;;
21091;SDS011;10704;42.678;23.288;2023-03-03T12:16:18;33.70;;;21.38;;
21091;SDS011;10704;42.678;23.288;2023-03-03T12:19:08;32.53;;;20.67;;
21091;SDS011;10704;42.678;23.288;2023-03-03T12:35:54;24.98;;;16.40;;
21091;SDS011;10704;42.678;23.288;2023-03-03T12:38:59;26.40;;;16.15;;
21091;SDS011;10704;42.678;23.288;2023-03-03T12:44:37;21.88;;;14.18;;
21091;SDS011;10704;42.678;23.288;2023-03-03T12:47:15;26.20;;;15.65;;
21091;SDS011;10704;42.678;23.288;2023-03-03T13:03:57;18.02;;;11.68;;
21091;SDS011;10704;42.678;23.288;2023-03-03T13:12:31;15.30;;;9.85;;
21091;SDS011;10704;42.678;23.288;2023-03-03T13:15:07;19.42;;;12.85;;
21091;SDS011;10704;42.678;23.288;2023-03-03T13:18:14;17.70;;;12.13;;
21091;SDS011;10704;42.678;23.288;2023-03-03T13:21:00;21.42;;;12.30;;
21091;SDS011;10704;42.678;23.288;2023-03-03T13:31:45;14.07;;;9.88;;
21091;SDS011;10704;42.678;23.288;2023-03-03T13:34:19;17.73;;;10.35;;
21091;SDS011;10704;42.678;23.288;2023-03-03T13:36:52;11.88;;;8.68;;
21091;SDS011;10704;42.678;23.288;2023-03-03T13:39:28;14.68;;;10.32;;
21091;SDS011;10704;42.678;23.288;2023-03-03T13:44:33;14.40;;;9.77;;
21091;SDS011;10704;42.678;23.288;2023-03-03T13:52:27;14.95;;;8.70;;
21091;SDS011;10704;42.678;23.288;2023-03-03T14:00:47;12.00;;;8.70;;
21091;SDS011;10704;42.678;23.288;2023-03-03T14:06:54;11.57;;;8.02;;
21091;SDS011;10704;42.678;23.288;2023-03-03T14:09:36;11.88;;;9.13;;
21091;SDS011;10704;42.678;23.288;2023-03-03T14:12:11;16.85;;;11.13;;
21091;SDS011;10704;42.678;23.288;2023-03-03T14:15:01;14.32;;;10.68;;
21091;SDS011;10704;42.678;23.288;2023-03-03T14:17:52;23.13;;;14.70;;
21091;SDS011;10704;42.678;23.288;2023-03-03T14:20:46;18.15;;;12.82;;
21091;SDS011;10704;42.678;23.288;2023-03-03T14:28:24;12.50;;;8.68;;
21091;SDS011;10704;42.678;23.288;2023-03-03T14:30:53;16.95;;;9.68;;
21091;SDS011;10704;42.678;23.288;2023-03-03T14:33:25;15.27;;;9.50;;
21091;SDS011;10704;42.678;23.288;2023-03-03T14:38:25;15.90;;;10.25;;
21091;SDS011;10704;42.678;23.288;2023-03-03T14:41:11;13.98;;;8.75;;
21091;SDS011;10704;42.678;23.288;2023-03-03T14:43:45;12.73;;;7.60;;
21091;SDS011;10704;42.678;23.288;2023-03-03T14:46:46;17.70;;;10.90;;
21091;SDS011;10704;42.678;23.288;2023-03-03T14:49:28;21.88;;;12.35;;
21091;SDS011;10704;42.678;23.288;2023-03-03T14:54:43;19.30;;;9.77;;
21091;SDS011;10704;42.678;23.288;2023-03-03T15:02:39;17.10;;;9.55;;
21091;SDS011;10704;42.678;23.288;2023-03-03T15:05:24;15.43;;;10.02;;
21091;SDS011;10704;42.678;23.288;2023-03-03T15:07:55;14.95;;;9.95;;
21091;SDS011;10704;42.678;23.288;2023-03-03T15:10:29;13.52;;;9.75;;
21091;SDS011;10704;42.678;23.288;2023-03-03T15:15:59;18.58;;;13.25;;
21091;SDS011;10704;42.678;23.288;2023-03-03T15:18:28;12.90;;;8.98;;
21091;SDS011;10704;42.678;23.288;2023-03-03T15:23:42;17.08;;;11.07;;
21091;SDS011;10704;42.678;23.288;2023-03-03T15:34:38;17.70;;;11.40;;
21091;SDS011;10704;42.678;23.288;2023-03-03T15:40:28;15.13;;;11.10;;
21091;SDS011;10704;42.678;23.288;2023-03-03T15:43:27;15.95;;;10.55;;
21091;SDS011;10704;42.678;23.288;2023-03-03T15:46:51;18.13;;;12.68;;
21091;SDS011;10704;42.678;23.288;2023-03-03T15:52:21;13.90;;;10.82;;
21091;SDS011;10704;42.678;23.288;2023-03-03T16:02:58;15.50;;;10.63;;
21091;SDS011;10704;42.678;23.288;2023-03-03T16:08:22;17.55;;;11.68;;
21091;SDS011;10704;42.678;23.288;2023-03-03T16:29:56;24.75;;;15.70;;
21091;SDS011;10704;42.678;23.288;2023-03-03T16:32:41;26.50;;;16.83;;
21091;SDS011;10704;42.678;23.288;2023-03-03T16:35:35;35.03;;;23.20;;
21091;SDS011;10704;42.678;23.288;2023-03-03T16:38:10;30.55;;;19.52;;
21091;SDS011;10704;42.678;23.288;2023-03-03T16:40:45;28.25;;;19.52;;
21091;SDS011;10704;42.678;23.288;2023-03-03T16:45:46;32.22;;;19.58;;
21091;SDS011;10704;42.678;23.288;2023-03-03T16:48:24;27.83;;;17.92;;
21091;SDS011;10704;42.678;23.288;2023-03-03T17:04:17;20.58;;;11.60;;
21091;SDS011;10704;42.678;23.288;2023-03-03T17:15:49;15.70;;;10.55;;
21091;SDS011;10704;42.678;23.288;2023-03-03T17:18:39;14.20;;;10.00;;
21091;SDS011;10704;42.678;23.288;2023-03-03T17:21:10;17.63;;;10.50;;
21091;SDS011;10704;42.678;23.288;2023-03-03T17:34:41;17.42;;;11.98;;
21091;SDS011;10704;42.678;23.288;2023-03-03T17:37:31;17.08;;;11.13;;
21091;SDS011;10704;42.678;23.288;2023-03-03T17:40:24;17.38;;;11.25;;
21091;SDS011;10704;42.678;23.288;2023-03-03T17:43:32;20.02;;;11.52;;
21091;SDS011;10704;42.678;23.288;2023-03-03T18:06:19;23.17;;;13.77;;
21091;SDS011;10704;42.678;23.288;2023-03-03T18:22:41;19.63;;;11.55;;
21091;SDS011;10704;42.678;23.288;2023-03-03T18:27:43;16.02;;;9.95;;
21091;SDS011;10704;42.678;23.288;2023-03-03T18:30:18;16.38;;;9.38;;
21091;SDS011;10704;42.678;23.288;2023-03-03T18:35:29;13.48;;;8.95;;
21091;SDS011;10704;42.678;23.288;2023-03-03T18:38:24;16.15;;;10.32;;
21091;SDS011;10704;42.678;23.288;2023-03-03T18:48:57;12.00;;;8.18;;
21091;SDS011;10704;42.678;23.288;2023-03-03T18:52:12;14.07;;;8.30;;
21091;SDS011;10704;42.678;23.288;2023-03-03T18:54:38;14.18;;;8.93;;
21091;SDS011;10704;42.678;23.288;2023-03-03T18:57:13;13.75;;;8.77;;
21091;SDS011;10704;42.678;23.288;2023-03-03T18:59:47;12.68;;;8.35;;
21091;SDS011;10704;42.678;23.288;2023-03-03T19:07:57;12.73;;;7.78;;
21091;SDS011;10704;42.678;23.288;2023-03-03T19:18:29;14.52;;;9.75;;
21091;SDS011;10704;42.678;23.288;2023-03-03T19:20:59;19.17;;;11.30;;
21091;SDS011;10704;42.678;23.288;2023-03-03T19:23:55;17.08;;;10.57;;
21091;SDS011;10704;42.678;23.288;2023-03-03T19:34:42;19.90;;;12.88;;
21091;SDS011;10704;42.678;23.288;2023-03-03T19:39:52;24.52;;;13.93;;
21091;SDS011;10704;42.678;23.288;2023-03-03T19:56:46;21.42;;;12.77;;
21091;SDS011;10704;42.678;23.288;2023-03-03T19:59:26;34.05;;;21.05;;
21091;SDS011;10704;42.678;23.288;2023-03-03T20:02:13;53.63;;;37.83;;
21091;SDS011;10704;42.678;23.288;2023-03-03T20:13:03;23.13;;;14.32;;
21091;SDS011;10704;42.678;23.288;2023-03-03T20:15:46;25.52;;;15.85;;
21091;SDS011;10704;42.678;23.288;2023-03-03T20:21:05;29.85;;;18.52;;
21091;SDS011;10704;42.678;23.288;2023-03-03T20:32:17;24.83;;;16.23;;
21091;SDS011;10704;42.678;23.288;2023-03-03T20:35:10;21.35;;;15.80;;
21091;SDS011;10704;42.678;23.288;2023-03-03T20:43:28;18.90;;;12.23;;
21091;SDS011;10704;42.678;23.288;2023-03-03T20:49:23;17.73;;;10.38;;
21091;SDS011;10704;42.678;23.288;2023-03-03T20:52:00;16.52;;;10.13;;
21091;SDS011;10704;42.678;23.288;2023-03-03T20:57:37;23.08;;;12.50;;
21091;SDS011;10704;42.678;23.288;2023-03-03T21:00:33;19.42;;;12.75;;
21091;SDS011;10704;42.678;23.288;2023-03-03T21:03:04;18.45;;;11.52;;
21091;SDS011;10704;42.678;23.288;2023-03-03T21:06:01;17.73;;;10.82;;
21091;SDS011;10704;42.678;23.288;2023-03-03T21:11:39;17.55;;;10.80;;
21091;SDS011;10704;42.678;23.288;2023-03-03T21:16:50;18.92;;;11.70;;
21091;SDS011;10704;42.678;23.288;2023-03-03T21:19:22;15.43;;;10.13;;
21091;SDS011;10704;42.678;23.288;2023-03-03T21:21:50;17.02;;;10.70;;
21091;SDS011;10704;42.678;23.288;2023-03-03T21:24:16;17.17;;;10.90;;
21091;SDS011;10704;42.678;23.288;2023-03-03T21:26:50;19.00;;;11.75;;
21091;SDS011;10704;42.678;23.288;2023-03-03T21:29:28;16.45;;;11.13;;
21091;SDS011;10704;42.678;23.288;2023-03-03T21:31:59;16.33;;;10.93;;
21091;SDS011;10704;42.678;23.288;2023-03-03T21:34:36;17.13;;;10.48;;
21091;SDS011;10704;42.678;23.288;2023-03-03T21:37:05;15.52;;;10.10;;
21091;SDS011;10704;42.678;23.288;2023-03-03T21:39:34;17.67;;;11.15;;
21091;SDS011;10704;42.678;23.288;2023-03-03T21:42:05;18.85;;;11.70;;
21091;SDS011;10704;42.678;23.288;2023-03-03T21:44:37;19.45;;;11.57;;
21091;SDS011;10704;42.678;23.288;2023-03-03T21:47:09;19.15;;;11.57;;